createdAt,value
2016-11-03T15:06:38.268Z,20.47
2016-11-03T15:07:18.790Z,20.51
2016-11-03T15:07:59.298Z,20.51
2016-11-03T15:08:39.921Z,20.51
2016-11-03T15:09:24.302Z,20.52
2016-11-03T15:10:05.075Z,20.56
2016-11-03T15:12:03.161Z,20.69
2016-11-03T15:12:43.723Z,20.67
2016-11-03T15:13:24.288Z,20.62
2016-11-03T15:14:04.796Z,20.74
2016-11-03T15:14:45.507Z,20.6
2016-11-03T15:15:26.024Z,20.72
2016-11-03T15:16:06.535Z,20.69
2016-11-03T15:22:39.487Z,16.35
2016-11-03T15:23:19.856Z,15.65
2016-11-03T15:24:00.317Z,15.33
2016-11-03T15:24:40.890Z,15.02
2016-11-03T15:25:21.416Z,14.43
2016-11-03T15:26:01.990Z,14.1
2016-11-03T15:26:42.453Z,13.59
2016-11-03T15:27:23.418Z,13.2
2016-11-03T15:28:03.926Z,12.91
2016-11-03T15:28:44.411Z,12.72
2016-11-03T15:29:24.901Z,12.24
2016-11-03T15:30:05.402Z,11.91
2016-11-03T15:30:46.035Z,11.7
2016-11-03T15:31:26.496Z,11.59
2016-11-03T15:32:06.980Z,11.41
2016-11-03T15:32:47.496Z,11.08
2016-11-03T15:34:35.540Z,10.48
2016-11-03T15:35:15.920Z,10.28
2016-11-03T15:35:56.394Z,10.05
2016-11-03T15:37:37.365Z,9.65
2016-11-03T15:38:24.787Z,9.39
2016-11-03T15:39:05.166Z,9.37
2016-11-03T15:39:45.645Z,9.23
2016-11-03T15:40:26.333Z,9.18
2016-11-03T15:41:06.823Z,9.04
2016-11-03T15:41:47.286Z,8.88
2016-11-03T15:42:27.785Z,8.85
2016-11-03T15:43:08.295Z,8.7
2016-11-03T15:43:48.864Z,8.6
2016-11-03T15:44:29.373Z,8.56
2016-11-03T15:45:11.145Z,8.41
2016-11-03T15:45:54.602Z,8.45
2016-11-03T15:46:35.103Z,8.33
2016-11-03T15:47:15.651Z,8.27
2016-11-03T15:47:56.130Z,8.18
2016-11-03T15:48:36.605Z,8.08
2016-11-03T15:49:17.138Z,8.05
2016-11-03T15:49:57.608Z,8.01
2016-11-03T15:50:38.075Z,7.93
2016-11-03T15:51:18.560Z,7.94
2016-11-03T15:51:59.053Z,7.83
2016-11-03T15:52:39.565Z,7.91
2016-11-03T15:53:20.111Z,7.77
2016-11-03T15:54:00.570Z,7.72
2016-11-03T15:54:41.051Z,7.61
2016-11-03T15:55:21.529Z,7.67
2016-11-03T15:56:02.708Z,7.51
2016-11-03T15:56:43.181Z,7.5
2016-11-03T15:57:23.680Z,7.5
2016-11-03T15:58:04.243Z,7.47
2016-11-03T15:58:44.786Z,7.39
2016-11-03T15:59:25.215Z,7.31
2016-11-03T16:00:05.705Z,7.28
2016-11-03T16:00:46.186Z,7.2
2016-11-03T16:01:26.646Z,7.28
2016-11-03T16:02:07.144Z,7.25
2016-11-03T16:02:47.624Z,7.14
2016-11-03T16:03:28.112Z,7.14
2016-11-03T16:04:08.615Z,7.18
2016-11-03T16:04:49.138Z,7.11
2016-11-03T16:05:29.718Z,7.15
2016-11-03T16:06:10.198Z,7.18
2016-11-03T16:06:50.703Z,7.15
2016-11-03T16:07:31.206Z,7.14
2016-11-03T16:08:11.672Z,7.1
2016-11-03T16:08:52.218Z,6.99
2016-11-03T16:09:32.678Z,6.99
2016-11-03T16:10:13.141Z,7.03
2016-11-03T16:10:53.620Z,7.03
2016-11-03T16:11:34.107Z,7.03
2016-11-03T16:12:14.615Z,7
2016-11-03T16:12:55.076Z,7.06
2016-11-03T16:13:35.596Z,7.05
2016-11-03T16:14:16.082Z,7
2016-11-03T16:14:56.590Z,6.97
2016-11-03T16:15:37.041Z,7.05
2016-11-03T16:16:17.539Z,6.99
2016-11-03T16:16:58.058Z,7.03
2016-11-03T16:17:38.543Z,7
2016-11-03T16:18:19.065Z,7.02
2016-11-03T16:18:59.536Z,6.95
2016-11-03T16:19:40.034Z,6.92
2016-11-03T16:20:20.514Z,6.85
2016-11-03T16:21:00.998Z,6.92
2016-11-03T16:21:41.490Z,6.92
2016-11-03T16:22:21.972Z,6.92
2016-11-03T16:23:02.460Z,6.88
2016-11-03T16:23:42.950Z,6.84
2016-11-03T16:24:23.476Z,6.85
2016-11-03T16:25:03.935Z,6.92
2016-11-03T16:25:47.296Z,6.92
2016-11-03T16:26:27.825Z,6.84
2016-11-03T16:27:08.307Z,6.82
2016-11-03T16:27:48.805Z,6.79
2016-11-03T16:28:29.294Z,6.87
2016-11-03T16:29:09.790Z,6.79
2016-11-03T16:29:50.270Z,6.74
2016-11-03T16:30:30.770Z,6.7
2016-11-03T16:31:11.253Z,6.72
2016-11-03T16:31:51.721Z,6.74
2016-11-03T16:32:32.206Z,6.75
2016-11-03T16:34:30.356Z,6.69
2016-11-03T16:35:11.422Z,6.62
2016-11-03T16:35:51.702Z,6.66
2016-11-03T16:36:32.192Z,6.64
2016-11-03T16:37:12.723Z,6.63
2016-11-03T16:37:53.220Z,6.59
2016-11-03T16:38:33.693Z,6.62
2016-11-03T16:39:14.212Z,6.66
2016-11-03T16:39:54.671Z,6.62
2016-11-03T16:40:35.173Z,6.63
2016-11-03T16:41:15.638Z,6.57
2016-11-03T16:41:58.703Z,6.54
2016-11-03T16:42:39.245Z,6.57
2016-11-03T16:43:19.687Z,6.54
2016-11-03T16:44:00.161Z,6.56
2016-11-03T16:44:40.644Z,6.56
2016-11-03T16:45:21.165Z,6.56
2016-11-03T16:46:01.660Z,6.51
2016-11-03T16:46:42.146Z,6.49
2016-11-03T16:47:22.649Z,6.6
2016-11-03T16:48:03.140Z,6.49
2016-11-03T16:48:43.687Z,6.57
2016-11-03T16:49:24.081Z,6.56
2016-11-03T16:50:04.570Z,6.54
2016-11-03T16:50:45.031Z,6.48
2016-11-03T16:51:25.524Z,6.56
2016-11-03T16:52:06.041Z,6.57
2016-11-03T16:52:46.501Z,6.51
2016-11-03T16:53:27.017Z,6.54
2016-11-03T16:54:07.487Z,6.51
2016-11-03T16:54:48.874Z,6.59
2016-11-03T16:55:29.425Z,6.54
2016-11-03T16:56:09.916Z,6.54
2016-11-03T16:56:50.435Z,6.52
2016-11-03T16:57:30.903Z,6.52
2016-11-03T16:58:11.406Z,6.51
2016-11-03T16:58:51.880Z,6.59
2016-11-03T16:59:32.383Z,6.51
2016-11-03T17:00:13.079Z,6.51
2016-11-03T17:00:53.577Z,6.48
2016-11-03T17:01:34.081Z,6.46
2016-11-03T17:02:14.534Z,6.54
2016-11-03T17:02:55.006Z,6.51
2016-11-03T17:03:35.487Z,6.54
2016-11-03T17:04:15.945Z,6.56
2016-11-03T17:04:56.427Z,6.57
2016-11-03T17:05:36.890Z,6.49
2016-11-03T17:06:17.376Z,6.52
2016-11-03T17:06:57.880Z,6.57
2016-11-03T17:07:38.363Z,6.54
2016-11-03T17:08:18.888Z,6.49
2016-11-03T17:08:59.361Z,6.57
2016-11-03T17:09:40.111Z,6.54
2016-11-03T17:10:20.674Z,6.54
2016-11-03T17:11:01.203Z,6.54
2016-11-03T17:11:41.688Z,6.57
2016-11-03T17:12:22.192Z,6.59
2016-11-03T17:13:02.698Z,6.52
2016-11-03T17:13:43.151Z,6.54
2016-11-03T17:14:23.653Z,6.54
2016-11-03T17:15:04.179Z,6.54
2016-11-03T17:15:44.663Z,6.57
2016-11-03T17:16:25.101Z,6.51
2016-11-03T17:17:05.612Z,6.49
2016-11-03T17:17:46.096Z,6.52
2016-11-03T17:18:26.579Z,6.57
2016-11-03T17:19:07.085Z,6.51
2016-11-03T17:19:47.540Z,6.51
2016-11-03T17:20:28.019Z,6.57
2016-11-03T17:21:08.541Z,6.57
2016-11-03T17:21:49.015Z,6.56
2016-11-03T17:22:29.524Z,6.59
2016-11-03T17:23:10.020Z,6.59
2016-11-03T17:23:50.494Z,6.51
2016-11-03T17:24:30.971Z,6.59
2016-11-03T17:25:11.462Z,6.59
2016-11-03T17:25:51.922Z,6.6
2016-11-03T17:26:32.422Z,6.52
2016-11-03T17:27:12.927Z,6.57
2016-11-03T17:27:53.416Z,6.59
2016-11-03T17:28:33.917Z,6.54
2016-11-03T17:29:14.390Z,6.54
2016-11-03T17:29:54.876Z,6.54
2016-11-03T17:30:35.349Z,6.56
2016-11-03T17:31:15.846Z,6.66
2016-11-03T17:31:56.326Z,6.59
2016-11-03T17:32:36.820Z,6.62
2016-11-03T17:33:17.300Z,6.64
2016-11-03T17:33:57.846Z,6.69
2016-11-03T17:34:38.322Z,6.67
2016-11-03T17:35:18.781Z,6.7
2016-11-03T17:35:59.288Z,6.59
2016-11-03T17:36:39.810Z,6.67
2016-11-03T17:37:20.237Z,6.6
2016-11-03T17:38:00.715Z,6.66
2016-11-03T17:38:41.179Z,6.64
2016-11-03T17:39:21.669Z,6.6
2016-11-03T17:40:02.130Z,6.64
2016-11-03T17:40:42.636Z,6.64
2016-11-03T17:41:23.110Z,6.64
2016-11-03T17:42:03.557Z,6.64
2016-11-03T17:42:43.997Z,6.59
2016-11-03T17:43:24.485Z,6.67
2016-11-03T17:44:04.994Z,6.75
2016-11-03T17:44:45.454Z,6.74
2016-11-03T17:45:25.957Z,6.77
2016-11-03T17:46:06.457Z,6.63
2016-11-03T17:46:46.936Z,6.77
2016-11-03T17:47:27.412Z,6.72
2016-11-03T17:48:07.886Z,6.7
2016-11-03T17:48:48.385Z,6.7
2016-11-03T17:49:28.911Z,6.77
2016-11-03T17:50:09.389Z,6.77
2016-11-03T17:50:49.878Z,6.74
2016-11-03T17:51:30.339Z,6.7
2016-11-03T17:52:10.831Z,6.78
2016-11-03T17:52:51.293Z,6.66
2016-11-03T17:53:31.771Z,6.84
2016-11-03T17:54:12.260Z,6.79
2016-11-03T17:54:52.767Z,6.81
2016-11-03T17:55:33.218Z,6.72
2016-11-03T17:56:13.712Z,6.78
2016-11-03T17:56:54.169Z,6.81
2016-11-03T17:57:34.682Z,6.77
2016-11-03T17:58:15.154Z,6.74
2016-11-03T17:58:55.615Z,6.74
2016-11-03T17:59:36.103Z,6.78
2016-11-03T18:00:16.580Z,6.74
2016-11-03T18:00:57.086Z,6.81
2016-11-03T18:01:37.575Z,6.74
2016-11-03T18:02:18.056Z,6.74
2016-11-03T18:02:58.576Z,6.77
2016-11-03T18:03:39.101Z,6.87
2016-11-03T18:04:19.558Z,6.75
2016-11-03T18:05:00.053Z,6.81
2016-11-03T18:05:40.518Z,6.85
2016-11-03T18:06:21.007Z,6.84
2016-11-03T18:07:01.472Z,6.78
2016-11-03T18:07:41.964Z,6.81
2016-11-03T18:08:22.471Z,6.81
2016-11-03T18:09:02.977Z,6.78
2016-11-03T18:09:43.464Z,6.78
2016-11-03T18:10:23.975Z,6.81
2016-11-03T18:11:04.442Z,6.85
2016-11-03T18:11:45.013Z,6.85
2016-11-03T18:12:25.487Z,6.85
2016-11-03T18:13:05.995Z,6.82
2016-11-03T18:13:46.493Z,6.84
2016-11-03T18:14:26.960Z,6.78
2016-11-03T18:15:07.439Z,6.82
2016-11-03T18:15:47.911Z,6.88
2016-11-03T18:16:28.432Z,6.84
2016-11-03T18:17:08.868Z,6.78
2016-11-03T18:17:49.375Z,6.82
2016-11-03T18:18:29.893Z,6.85
2016-11-03T18:19:10.371Z,6.87
2016-11-03T18:19:50.875Z,6.85
2016-11-03T18:20:31.345Z,6.85
2016-11-03T18:21:11.824Z,6.85
2016-11-03T18:21:52.311Z,6.82
2016-11-03T18:22:32.956Z,6.88
2016-11-03T18:23:13.475Z,6.81
2016-11-03T18:23:53.942Z,6.78
2016-11-03T18:24:34.471Z,6.74
2016-11-03T18:25:14.953Z,6.77
2016-11-03T18:25:55.684Z,6.82
2016-11-03T18:26:36.202Z,6.77
2016-11-03T18:27:16.723Z,6.7
2016-11-03T18:27:57.198Z,6.82
2016-11-03T18:28:37.716Z,6.78
2016-11-03T18:29:18.201Z,6.67
2016-11-03T18:29:58.707Z,6.77
2016-11-03T18:30:39.182Z,6.74
2016-11-03T18:31:19.671Z,6.67
2016-11-03T18:32:00.174Z,6.74
2016-11-03T18:32:40.660Z,6.79
2016-11-03T18:33:21.177Z,6.75
2016-11-03T18:34:01.640Z,6.72
2016-11-03T18:34:42.121Z,6.7
2016-11-03T18:35:22.631Z,6.75
2016-11-03T18:36:03.103Z,6.7
2016-11-03T18:36:43.554Z,6.75
2016-11-03T18:37:24.050Z,6.75
2016-11-03T18:38:04.501Z,6.75
2016-11-03T18:38:45.017Z,6.78
2016-11-03T18:39:25.524Z,6.74
2016-11-03T18:40:06.006Z,6.75
2016-11-03T18:40:46.479Z,6.69
2016-11-03T18:41:27.051Z,6.67
2016-11-03T18:42:07.521Z,6.75
2016-11-03T18:42:48.009Z,6.75
2016-11-03T18:43:28.526Z,6.77
2016-11-03T18:44:08.986Z,6.81
2016-11-03T18:44:49.495Z,6.84
2016-11-03T18:45:29.980Z,6.81
2016-11-03T18:46:10.474Z,6.78
2016-11-03T18:46:50.987Z,6.79
2016-11-03T18:47:31.447Z,6.78
2016-11-03T18:48:11.921Z,6.81
2016-11-03T18:48:52.555Z,6.84
2016-11-03T18:49:33.235Z,6.81
2016-11-03T18:50:13.742Z,6.82
2016-11-03T18:50:54.261Z,6.74
2016-11-03T18:51:34.748Z,6.81
2016-11-03T18:52:15.286Z,6.77
2016-11-03T18:52:55.728Z,6.79
2016-11-03T18:53:36.216Z,6.75
2016-11-03T18:54:16.702Z,6.84
2016-11-03T18:54:57.232Z,6.81
2016-11-03T18:55:37.727Z,6.77
2016-11-03T18:56:18.194Z,6.78
2016-11-03T18:56:58.694Z,6.87
2016-11-03T18:57:39.188Z,6.85
2016-11-03T18:58:19.682Z,6.84
2016-11-03T18:59:00.179Z,6.88
2016-11-03T18:59:40.659Z,6.88
2016-11-03T19:00:21.167Z,6.89
2016-11-03T19:01:01.622Z,6.87
2016-11-03T19:01:42.281Z,6.89
2016-11-03T19:02:22.797Z,6.89
2016-11-03T19:03:03.297Z,6.85
2016-11-03T19:03:43.867Z,6.84
2016-11-03T19:04:24.308Z,6.87
2016-11-03T19:05:04.867Z,6.88
2016-11-03T19:05:45.580Z,6.88
2016-11-03T19:06:26.026Z,6.81
2016-11-03T19:07:06.542Z,6.81
2016-11-03T19:07:47.262Z,6.84
2016-11-03T19:08:27.771Z,6.81
2016-11-03T19:09:08.259Z,6.81
2016-11-03T19:09:48.751Z,6.92
2016-11-03T19:10:29.272Z,6.89
2016-11-03T19:11:09.851Z,6.89
2016-11-03T19:11:50.558Z,6.96
2016-11-03T19:12:31.573Z,6.88
2016-11-03T19:13:12.369Z,6.88
2016-11-03T19:13:53.035Z,6.93
2016-11-03T19:14:33.774Z,6.87
2016-11-03T19:15:14.328Z,6.92
2016-11-03T19:15:55.052Z,6.99
2016-11-03T19:16:35.570Z,6.95
2016-11-03T19:17:16.329Z,6.99
2016-11-03T19:17:57.357Z,7.02
2016-11-03T19:18:38.015Z,6.99
2016-11-03T19:19:18.720Z,7.03
2016-11-03T19:19:59.238Z,7.02
2016-11-03T19:20:40.058Z,7.02
2016-11-03T19:21:21.196Z,6.99
2016-11-03T19:22:01.798Z,7.05
2016-11-03T19:22:42.296Z,7.14
2016-11-03T19:23:22.780Z,7.02
2016-11-03T19:24:03.281Z,7.11
2016-11-03T19:24:43.758Z,7.14
2016-11-03T19:25:24.237Z,7.13
2016-11-03T19:26:04.783Z,7.17
2016-11-03T19:26:45.271Z,7.23
2016-11-03T19:27:25.762Z,7.28
2016-11-03T19:28:06.304Z,7.25
2016-11-03T19:28:46.795Z,7.28
2016-11-03T19:29:27.281Z,7.25
2016-11-03T19:30:07.759Z,7.21
2016-11-03T19:30:48.217Z,7.31
2016-11-03T19:31:28.700Z,7.31
2016-11-03T19:32:09.228Z,7.35
2016-11-03T19:32:49.708Z,7.28
2016-11-03T19:33:30.203Z,7.31
2016-11-03T19:34:10.687Z,7.31
2016-11-03T19:34:51.213Z,7.24
2016-11-03T19:35:31.748Z,7.29
2016-11-03T19:36:12.456Z,7.31
2016-11-03T19:36:52.976Z,7.33
2016-11-03T19:37:33.502Z,7.35
2016-11-03T19:38:14.078Z,7.28
2016-11-03T19:38:54.577Z,7.28
2016-11-03T19:39:35.069Z,7.35
2016-11-03T19:40:15.658Z,7.31
2016-11-03T19:40:56.100Z,7.28
2016-11-03T19:41:36.584Z,7.32
2016-11-03T19:42:17.098Z,7.28
2016-11-03T19:42:57.585Z,7.32
2016-11-03T19:43:38.084Z,7.38
2016-11-03T19:44:18.589Z,7.32
2016-11-03T19:44:59.085Z,7.4
2016-11-03T19:45:39.558Z,7.42
2016-11-03T19:46:20.021Z,7.4
2016-11-03T19:47:00.492Z,7.43
2016-11-03T19:47:40.986Z,7.4
2016-11-03T19:48:21.455Z,7.29
2016-11-03T19:49:01.948Z,7.31
2016-11-03T19:49:42.432Z,7.36
2016-11-03T19:50:22.899Z,7.43
2016-11-03T19:51:03.409Z,7.38
2016-11-03T19:51:43.858Z,7.43
2016-11-03T19:52:24.360Z,7.38
2016-11-03T19:53:04.864Z,7.38
2016-11-03T19:53:45.347Z,7.38
2016-11-03T19:54:25.886Z,7.39
2016-11-03T19:55:06.343Z,7.4
2016-11-03T19:55:46.845Z,7.4
2016-11-03T19:56:27.317Z,7.39
2016-11-03T19:57:07.804Z,7.43
2016-11-03T19:57:48.282Z,7.39
2016-11-03T19:58:28.792Z,7.29
2016-11-03T19:59:09.268Z,7.25
2016-11-03T19:59:49.775Z,7.35
2016-11-03T20:00:30.283Z,7.29
2016-11-03T20:01:10.761Z,7.28
2016-11-03T20:01:51.261Z,7.21
2016-11-03T20:02:31.789Z,7.23
2016-11-03T20:03:12.277Z,7.21
2016-11-03T20:03:52.778Z,7.24
2016-11-03T20:04:33.272Z,7.23
2016-11-03T20:05:13.778Z,7.24
2016-11-03T20:05:54.292Z,7.18
2016-11-03T20:06:34.801Z,7.17
2016-11-03T20:07:15.273Z,7.23
2016-11-03T20:07:55.777Z,7.14
2016-11-03T20:08:36.234Z,7.11
2016-11-03T20:09:16.704Z,7.13
2016-11-03T20:09:57.244Z,7.14
2016-11-03T20:10:37.708Z,7.2
2016-11-03T20:11:18.190Z,7.15
2016-11-03T20:11:58.688Z,7.18
2016-11-03T20:12:39.174Z,7.13
2016-11-03T20:13:19.616Z,7.28
2016-11-03T20:14:00.126Z,7.11
2016-11-03T20:14:40.631Z,7.21
2016-11-03T20:15:21.111Z,7.1
2016-11-03T20:16:01.658Z,7.24
2016-11-03T20:16:42.228Z,7.28
2016-11-03T20:17:22.715Z,7.14
2016-11-03T20:18:03.194Z,7.15
2016-11-03T20:18:43.669Z,7.28
2016-11-03T20:19:24.155Z,7.2
2016-11-03T20:20:04.648Z,7.25
2016-11-03T20:20:45.111Z,7.11
2016-11-03T20:21:25.591Z,7.23
2016-11-03T20:22:06.063Z,7.11
2016-11-03T20:22:46.521Z,7.13
2016-11-03T20:23:27.018Z,7.29
2016-11-03T20:24:07.518Z,7.21
2016-11-03T20:24:48.048Z,7.17
2016-11-03T20:25:28.539Z,7.14
2016-11-03T20:26:09.035Z,7.18
2016-11-03T20:26:49.520Z,7.11
2016-11-03T20:27:30.061Z,7.24
2016-11-03T20:28:10.580Z,7.23
2016-11-03T20:28:51.086Z,7.15
2016-11-03T20:29:31.590Z,7.11
2016-11-03T20:30:12.067Z,7.11
2016-11-03T20:30:52.553Z,7.15
2016-11-03T20:31:33.054Z,7.14
2016-11-03T20:32:13.529Z,7.15
2016-11-03T20:32:54.041Z,7.17
2016-11-03T20:33:34.547Z,7.17
2016-11-03T20:34:15.015Z,7.15
2016-11-03T20:34:55.519Z,7.15
2016-11-03T20:35:36.064Z,7.14
2016-11-03T20:36:16.526Z,7.11
2016-11-03T20:36:57.034Z,7.13
2016-11-03T20:37:37.522Z,7.11
2016-11-03T20:38:17.996Z,7.15
2016-11-03T20:38:58.508Z,7.14
2016-11-03T20:39:38.988Z,7.05
2016-11-03T20:40:19.498Z,7
2016-11-03T20:40:59.979Z,7.02
2016-11-03T20:41:40.471Z,7.07
2016-11-03T20:42:20.953Z,6.99
2016-11-03T20:43:01.452Z,7
2016-11-03T20:43:41.942Z,7.03
2016-11-03T20:44:22.424Z,6.99
2016-11-03T20:45:02.920Z,6.99
2016-11-03T20:45:43.423Z,6.97
2016-11-03T20:46:23.921Z,6.99
2016-11-03T20:47:04.517Z,6.99
2016-11-03T20:47:45.155Z,6.97
2016-11-03T20:48:25.690Z,6.99
2016-11-03T20:49:06.172Z,6.99
2016-11-03T20:49:46.637Z,6.99
2016-11-03T20:50:27.148Z,6.99
2016-11-03T20:51:07.633Z,7.15
2016-11-03T20:51:48.133Z,7.02
2016-11-03T20:52:28.626Z,6.99
2016-11-03T20:53:09.100Z,7.05
2016-11-03T20:53:49.552Z,7.05
2016-11-03T20:54:30.031Z,7
2016-11-03T20:55:10.519Z,7.1
2016-11-03T20:55:50.973Z,7.14
2016-11-03T20:56:31.460Z,7.07
2016-11-03T20:57:11.942Z,7.06
2016-11-03T20:57:52.413Z,7.1
2016-11-03T20:58:32.903Z,7.1
2016-11-03T20:59:13.425Z,7.15
2016-11-03T20:59:53.915Z,7.11
2016-11-03T21:00:34.501Z,7.13
2016-11-03T21:01:14.967Z,7.13
2016-11-03T21:01:55.431Z,7.18
2016-11-03T21:02:35.933Z,7.15
2016-11-03T21:03:16.359Z,7.14
2016-11-03T21:03:56.819Z,7.11
2016-11-03T21:04:37.302Z,7.18
2016-11-03T21:05:17.788Z,7.1
2016-11-03T21:05:58.285Z,7.18
2016-11-03T21:06:38.778Z,7.21
2016-11-03T21:07:19.261Z,7.13
2016-11-03T21:07:59.742Z,7.24
2016-11-03T21:09:38.544Z,7.31
2016-11-03T21:10:21.625Z,7.28
2016-11-03T21:11:02.132Z,7.25
2016-11-03T21:11:42.609Z,7.33
2016-11-03T21:12:23.085Z,7.24
2016-11-03T21:13:03.561Z,7.24
2016-11-03T21:13:44.119Z,7.24
2016-11-03T21:14:24.608Z,7.25
2016-11-03T21:15:05.096Z,7.31
2016-11-03T21:15:45.572Z,7.29
2016-11-03T21:16:26.042Z,7.31
2016-11-03T21:17:06.535Z,7.31
2016-11-03T21:17:46.980Z,7.31
2016-11-03T21:18:27.477Z,7.28
2016-11-03T21:19:07.959Z,7.31
2016-11-03T21:19:48.433Z,7.29
2016-11-03T21:20:28.949Z,7.38
2016-11-03T21:21:11.952Z,7.39
2016-11-03T21:21:52.436Z,7.28
2016-11-03T21:22:32.930Z,7.24
2016-11-03T21:23:13.414Z,7.35
2016-11-03T21:23:53.892Z,7.39
2016-11-03T21:24:34.381Z,7.39
2016-11-03T21:25:14.858Z,7.36
2016-11-03T21:25:55.350Z,7.35
2016-11-03T21:26:35.856Z,7.45
2016-11-03T21:27:16.332Z,7.4
2016-11-03T21:27:56.815Z,7.33
2016-11-03T21:28:37.316Z,7.42
2016-11-03T21:29:17.817Z,7.38
2016-11-03T21:29:58.312Z,7.38
2016-11-03T21:30:38.779Z,7.35
2016-11-03T21:31:19.309Z,7.36
2016-11-03T21:31:59.796Z,7.39
2016-11-03T21:32:40.268Z,7.42
2016-11-03T21:33:20.763Z,7.35
2016-11-03T21:34:01.276Z,7.36
2016-11-03T21:34:41.763Z,7.42
2016-11-03T21:35:22.239Z,7.43
2016-11-03T21:36:02.725Z,7.38
2016-11-03T21:36:43.198Z,7.39
2016-11-03T21:37:23.673Z,7.4
2016-11-03T21:38:04.188Z,7.35
2016-11-03T21:38:44.634Z,7.36
2016-11-03T21:39:25.118Z,7.28
2016-11-03T21:40:05.576Z,7.39
2016-11-03T21:40:46.065Z,7.35
2016-11-03T21:41:26.529Z,7.23
2016-11-03T21:42:07.050Z,7.23
2016-11-03T21:42:47.516Z,7.28
2016-11-03T21:43:27.972Z,7.24
2016-11-03T21:44:08.479Z,7.25
2016-11-03T21:44:48.952Z,7.28
2016-11-03T21:45:29.443Z,7.23
2016-11-03T21:46:09.912Z,7.25
2016-11-03T21:46:50.404Z,7.24
2016-11-03T21:47:30.932Z,7.29
2016-11-03T21:48:11.398Z,7.23
2016-11-03T21:48:51.855Z,7.29
2016-11-03T21:49:32.354Z,7.24
2016-11-03T21:50:12.843Z,7.24
2016-11-03T21:50:53.356Z,7.14
2016-11-03T21:51:33.827Z,7.23
2016-11-03T21:52:14.356Z,7.15
2016-11-03T21:52:54.840Z,7.14
2016-11-03T21:53:35.294Z,7.17
2016-11-03T21:54:15.785Z,7.13
2016-11-03T21:54:57.196Z,7.18
2016-11-03T21:55:36.756Z,7.15
2016-11-03T21:56:17.250Z,7.14
2016-11-03T21:56:57.721Z,7.2
2016-11-03T21:57:38.222Z,7.15
2016-11-03T21:58:18.685Z,7.11
2016-11-03T21:58:59.204Z,7.17
2016-11-03T21:59:39.659Z,7.13
2016-11-03T22:00:20.152Z,7.18
2016-11-03T22:01:00.641Z,7.15
2016-11-03T22:01:41.105Z,7.18
2016-11-03T22:02:21.611Z,7.18
2016-11-03T22:03:02.118Z,7.15
2016-11-03T22:03:42.575Z,7.13
2016-11-03T22:04:23.077Z,7.17
2016-11-03T22:05:03.534Z,7.1
2016-11-03T22:05:43.993Z,7.14
2016-11-03T22:06:24.474Z,7.18
2016-11-03T22:07:04.965Z,7.15
2016-11-03T22:07:45.450Z,7.11
2016-11-03T22:08:25.945Z,7.11
2016-11-03T22:09:06.456Z,7.17
2016-11-03T22:09:46.924Z,7.1
2016-11-03T22:10:27.379Z,7.2
2016-11-03T22:11:07.859Z,7.11
2016-11-03T22:11:48.370Z,7.13
2016-11-03T22:12:28.828Z,7.1
2016-11-03T22:13:09.323Z,7.11
2016-11-03T22:13:49.810Z,7.13
2016-11-03T22:14:30.277Z,7.13
2016-11-03T22:15:10.784Z,7.25
2016-11-03T22:15:51.262Z,7.24
2016-11-03T22:16:31.737Z,7.25
2016-11-03T22:17:12.216Z,7.24
2016-11-03T22:17:52.706Z,7.28
2016-11-03T22:18:33.210Z,7.21
2016-11-03T22:19:13.702Z,7.28
2016-11-03T22:19:54.177Z,7.24
2016-11-03T22:20:34.634Z,7.31
2016-11-03T22:21:15.097Z,7.24
2016-11-03T22:21:55.579Z,7.23
2016-11-03T22:22:36.075Z,7.33
2016-11-03T22:23:16.560Z,7.28
2016-11-03T22:23:57.015Z,7.24
2016-11-03T22:24:37.508Z,7.28
2016-11-03T22:25:17.992Z,7.24
2016-11-03T22:25:58.493Z,7.29
2016-11-03T22:26:38.970Z,7.32
2016-11-03T22:27:19.431Z,7.32
2016-11-03T22:27:59.920Z,7.32
2016-11-03T22:28:40.424Z,7.42
2016-11-03T22:29:20.896Z,7.39
2016-11-03T22:30:01.422Z,7.4
2016-11-03T22:30:41.890Z,7.39
2016-11-03T22:31:22.362Z,7.36
2016-11-03T22:32:02.851Z,7.36
2016-11-03T22:32:43.392Z,7.43
2016-11-03T22:33:23.851Z,7.39
2016-11-03T22:34:04.357Z,7.42
2016-11-03T22:34:44.828Z,7.39
2016-11-03T22:35:25.357Z,7.42
2016-11-03T22:36:05.771Z,7.4
2016-11-03T22:36:46.242Z,7.48
2016-11-03T22:37:26.731Z,7.36
2016-11-03T22:38:07.224Z,7.38
2016-11-03T22:38:47.704Z,7.42
2016-11-03T22:39:28.177Z,7.45
2016-11-03T22:40:08.650Z,7.43
2016-11-03T22:40:49.169Z,7.5
2016-11-03T22:41:29.641Z,7.5
2016-11-03T22:42:10.177Z,7.48
2016-11-03T22:42:50.652Z,7.57
2016-11-03T22:43:31.153Z,7.4
2016-11-03T22:44:11.616Z,7.53
2016-11-03T22:44:52.085Z,7.47
2016-11-03T22:45:32.560Z,7.45
2016-11-03T22:46:13.037Z,7.51
2016-11-03T22:46:55.053Z,7.47
2016-11-03T22:47:35.514Z,7.47
2016-11-03T22:48:16.003Z,7.48
2016-11-03T22:48:56.501Z,7.47
2016-11-03T22:49:36.986Z,7.5
2016-11-03T22:50:17.452Z,7.53
2016-11-03T22:50:57.960Z,7.43
2016-11-03T22:51:38.441Z,7.48
2016-11-03T22:52:18.922Z,7.51
2016-11-03T22:52:59.382Z,7.5
2016-11-03T22:53:39.869Z,7.51
2016-11-03T22:54:20.378Z,7.45
2016-11-03T22:55:00.852Z,7.42
2016-11-03T22:55:41.325Z,7.51
2016-11-03T22:56:21.806Z,7.47
2016-11-03T22:57:02.325Z,7.5
2016-11-03T22:57:42.800Z,7.48
2016-11-03T22:58:23.268Z,7.48
2016-11-03T22:59:03.720Z,7.42
2016-11-03T22:59:44.221Z,7.43
2016-11-03T23:00:24.751Z,7.48
2016-11-03T23:01:05.253Z,7.43
2016-11-03T23:01:45.767Z,7.45
2016-11-03T23:02:26.235Z,7.4
2016-11-03T23:03:06.713Z,7.39
2016-11-03T23:03:47.182Z,7.42
2016-11-03T23:04:27.682Z,7.36
2016-11-03T23:05:08.185Z,7.36
2016-11-03T23:05:48.672Z,7.36
2016-11-03T23:06:29.192Z,7.43
2016-11-03T23:07:09.602Z,7.36
2016-11-03T23:07:50.063Z,7.45
2016-11-03T23:08:30.572Z,7.36
2016-11-03T23:09:11.009Z,7.36
2016-11-03T23:09:51.532Z,7.42
2016-11-03T23:10:32.007Z,7.42
2016-11-03T23:11:12.488Z,7.39
2016-11-03T23:11:52.967Z,7.4
2016-11-03T23:12:33.440Z,7.4
2016-11-03T23:13:13.911Z,7.32
2016-11-03T23:13:54.394Z,7.4
2016-11-03T23:14:34.893Z,7.31
2016-11-03T23:15:15.387Z,7.33
2016-11-03T23:15:55.855Z,7.28
2016-11-03T23:16:36.327Z,7.28
2016-11-03T23:17:16.800Z,7.4
2016-11-03T23:17:57.268Z,7.24
2016-11-03T23:18:37.737Z,7.33
2016-11-03T23:19:18.233Z,7.31
2016-11-03T23:19:58.712Z,7.33
2016-11-03T23:20:39.192Z,7.28
2016-11-03T23:21:19.683Z,7.28
2016-11-03T23:22:00.149Z,7.24
2016-11-03T23:22:40.649Z,7.31
2016-11-03T23:23:21.155Z,7.29
2016-11-03T23:24:01.665Z,7.29
2016-11-03T23:24:42.146Z,7.33
2016-11-03T23:25:22.628Z,7.31
2016-11-03T23:26:03.117Z,7.28
2016-11-03T23:26:43.618Z,7.25
2016-11-03T23:27:24.126Z,7.33
2016-11-03T23:28:04.621Z,7.28
2016-11-03T23:28:45.110Z,7.4
2016-11-03T23:29:25.586Z,7.43
2016-11-03T23:30:06.072Z,7.38
2016-11-03T23:30:46.561Z,7.38
2016-11-03T23:31:27.026Z,7.42
2016-11-03T23:32:07.529Z,7.38
2016-11-03T23:32:48.011Z,7.43
2016-11-03T23:33:28.486Z,7.45
2016-11-03T23:34:08.944Z,7.36
2016-11-03T23:34:49.446Z,7.39
2016-11-03T23:35:29.949Z,7.4
2016-11-03T23:36:10.435Z,7.38
2016-11-03T23:36:50.913Z,7.42
2016-11-03T23:37:31.393Z,7.42
2016-11-03T23:38:11.875Z,7.36
2016-11-03T23:38:52.331Z,7.42
2016-11-03T23:39:32.796Z,7.45
2016-11-03T23:40:13.267Z,7.38
2016-11-03T23:40:53.731Z,7.4
2016-11-03T23:41:34.239Z,7.4
2016-11-03T23:42:14.693Z,7.4
2016-11-03T23:42:55.165Z,7.45
2016-11-03T23:43:35.642Z,7.43
2016-11-03T23:44:16.132Z,7.47
2016-11-03T23:44:56.612Z,7.4
2016-11-03T23:45:37.069Z,7.51
2016-11-03T23:46:17.560Z,7.45
2016-11-03T23:46:58.069Z,7.43
2016-11-03T23:47:38.572Z,7.43
2016-11-03T23:48:19.024Z,7.43
2016-11-03T23:48:59.531Z,7.51
2016-11-03T23:49:40.017Z,7.54
2016-11-03T23:50:20.515Z,7.5
2016-11-03T23:51:00.997Z,7.5
2016-11-03T23:51:41.469Z,7.5
2016-11-03T23:52:21.948Z,7.51
2016-11-03T23:53:02.435Z,7.51
2016-11-03T23:53:42.930Z,7.53
2016-11-03T23:54:23.426Z,7.48
2016-11-03T23:55:03.919Z,7.5
2016-11-03T23:55:44.453Z,7.51
2016-11-03T23:56:24.913Z,7.5
2016-11-03T23:57:05.398Z,7.48
2016-11-03T23:57:45.898Z,7.51
2016-11-03T23:58:26.344Z,7.48
2016-11-03T23:59:06.826Z,7.48
2016-11-03T23:59:47.311Z,7.43
